createdAt,value
2023-01-23T00:01:25.297Z,3.83
2023-01-23T00:04:12.864Z,3.86
2023-01-23T00:06:59.551Z,3.94
2023-01-23T00:09:46.271Z,3.88
2023-01-23T00:12:32.921Z,3.92
2023-01-23T00:15:19.705Z,3.86
2023-01-23T00:18:06.250Z,3.81
2023-01-23T00:20:52.972Z,3.91
2023-01-23T00:23:42.212Z,3.96
2023-01-23T00:26:29.498Z,3.87
2023-01-23T00:29:16.133Z,3.92
2023-01-23T00:32:02.768Z,3.85
2023-01-23T00:34:49.365Z,3.80
2023-01-23T00:37:35.980Z,3.89
2023-01-23T00:40:22.720Z,3.76
2023-01-23T00:43:09.369Z,3.80
2023-01-23T00:45:56.411Z,3.75
2023-01-23T00:48:43.515Z,3.67
2023-01-23T00:51:30.452Z,3.68
2023-01-23T00:54:17.557Z,3.68
2023-01-23T00:57:04.210Z,3.69
2023-01-23T00:59:50.858Z,3.69
2023-01-23T01:02:37.699Z,3.69
2023-01-23T01:05:24.372Z,3.71
2023-01-23T01:08:11.061Z,3.83
2023-01-23T01:10:57.733Z,3.90
2023-01-23T01:13:44.677Z,3.82
2023-01-23T01:16:31.357Z,3.79
2023-01-23T01:19:18.997Z,3.83
2023-01-23T01:22:05.591Z,3.85
2023-01-23T01:24:52.187Z,3.78
2023-01-23T01:27:38.835Z,3.62
2023-01-23T01:30:27.118Z,3.73
2023-01-23T01:33:13.716Z,3.78
2023-01-23T01:36:03.233Z,3.82
2023-01-23T01:38:50.208Z,3.81
2023-01-23T01:41:36.927Z,3.73
2023-01-23T01:44:24.366Z,3.75
2023-01-23T01:47:15.814Z,3.82
2023-01-23T01:50:07.273Z,3.78
2023-01-23T01:52:53.938Z,3.70
2023-01-23T01:55:40.766Z,3.76
2023-01-23T01:58:27.813Z,3.73
2023-01-23T02:01:14.495Z,3.76
2023-01-23T02:04:02.038Z,3.67
2023-01-23T02:06:49.574Z,3.67
2023-01-23T02:09:36.252Z,3.62
2023-01-23T02:12:23.174Z,3.72
2023-01-23T02:15:10.019Z,3.77
2023-01-23T02:17:56.841Z,3.74
2023-01-23T02:20:43.561Z,3.75
2023-01-23T02:23:37.487Z,3.73
2023-01-23T02:26:43.969Z,3.78
2023-01-23T02:29:44.061Z,3.81
2023-01-23T02:32:30.796Z,3.80
2023-01-23T02:35:27.918Z,3.72
2023-01-23T02:38:14.842Z,3.71
2023-01-23T02:41:02.935Z,3.40
2023-01-23T02:43:50.383Z,3.73
2023-01-23T02:46:37.035Z,3.77
2023-01-23T02:49:23.749Z,3.52
2023-01-23T02:52:10.409Z,3.68
2023-01-23T02:54:57.068Z,3.71
2023-01-23T02:57:45.110Z,3.64
2023-01-23T03:00:31.759Z,3.60
2023-01-23T03:03:18.718Z,3.64
2023-01-23T03:06:05.939Z,3.64
2023-01-23T03:08:52.533Z,3.59
2023-01-23T03:11:40.453Z,3.66
2023-01-23T03:14:27.587Z,3.68
2023-01-23T03:17:15.903Z,3.67
2023-01-23T03:20:04.252Z,3.67
2023-01-23T03:22:51.047Z,3.69
2023-01-23T03:25:37.606Z,3.68
2023-01-23T03:28:43.252Z,3.46
2023-01-23T03:31:30.277Z,3.70
2023-01-23T03:34:17.940Z,3.61
2023-01-23T03:37:05.395Z,3.46
2023-01-23T03:40:10.533Z,3.48
2023-01-23T03:42:57.131Z,3.51
2023-01-23T03:45:43.744Z,3.56
2023-01-23T03:48:30.343Z,3.62
2023-01-23T03:51:17.089Z,3.56
2023-01-23T03:54:04.061Z,3.55
2023-01-23T03:56:50.749Z,3.53
2023-01-23T03:59:37.398Z,3.54
2023-01-23T04:02:24.583Z,3.55
2023-01-23T04:05:11.400Z,3.55
2023-01-23T04:07:58.021Z,3.46
2023-01-23T04:10:44.648Z,3.42
2023-01-23T04:13:31.601Z,3.38
2023-01-23T04:16:18.223Z,3.38
2023-01-23T04:19:04.868Z,3.38
2023-01-23T04:21:51.586Z,3.36
2023-01-23T04:24:38.264Z,3.42
2023-01-23T04:27:24.896Z,3.40
2023-01-23T04:30:11.796Z,3.33
2023-01-23T04:32:58.482Z,3.34
2023-01-23T04:35:53.056Z,3.32
2023-01-23T04:38:39.704Z,3.34
2023-01-23T04:41:44.458Z,3.39
2023-01-23T04:44:31.073Z,3.19
2023-01-23T04:47:17.680Z,3.44
2023-01-23T04:50:13.827Z,3.35
2023-01-23T04:53:00.557Z,3.33
2023-01-23T04:55:49.069Z,3.30
2023-01-23T04:58:38.550Z,3.30
2023-01-23T05:01:25.173Z,3.37
2023-01-23T05:04:12.058Z,3.31
2023-01-23T05:06:58.685Z,3.26
2023-01-23T05:09:45.348Z,3.27
2023-01-23T05:12:32.423Z,3.34
2023-01-23T05:15:21.126Z,3.24
2023-01-23T05:18:07.784Z,3.13
2023-01-23T05:20:54.386Z,3.15
2023-01-23T05:23:40.998Z,3.16
2023-01-23T05:26:27.843Z,3.16
2023-01-23T05:29:14.519Z,3.01
2023-01-23T05:32:01.411Z,3.13
2023-01-23T05:34:48.063Z,3.08
2023-01-23T05:37:34.718Z,3.03
2023-01-23T05:40:21.927Z,3.04
2023-01-23T05:43:11.999Z,2.94
2023-01-23T05:46:02.003Z,2.92
2023-01-23T05:48:49.995Z,2.92
2023-01-23T05:51:36.623Z,2.93
2023-01-23T05:54:23.247Z,2.75
2023-01-23T05:57:09.849Z,2.98
2023-01-23T05:59:56.525Z,2.99
2023-01-23T06:02:43.391Z,3.04
2023-01-23T06:05:30.123Z,3.10
2023-01-23T06:08:16.718Z,2.97
2023-01-23T06:11:03.649Z,2.95
2023-01-23T06:13:50.364Z,3.01
2023-01-23T06:16:37.157Z,3.02
2023-01-23T06:19:23.837Z,2.94
2023-01-23T06:22:10.515Z,2.99
2023-01-23T06:24:57.231Z,3.01
2023-01-23T06:27:43.855Z,2.61
2023-01-23T06:30:30.514Z,3.04
2023-01-23T06:33:17.116Z,3.04
2023-01-23T06:36:05.418Z,3.18
2023-01-23T06:38:52.356Z,3.19
2023-01-23T06:41:38.996Z,3.18
2023-01-23T06:44:25.729Z,3.22
2023-01-23T06:47:12.359Z,3.21
2023-01-23T06:49:58.971Z,3.25
2023-01-23T06:52:45.599Z,3.26
2023-01-23T06:55:32.734Z,3.21
2023-01-23T06:58:19.551Z,3.35
2023-01-23T07:01:10.147Z,3.29
2023-01-23T07:03:56.756Z,3.29
2023-01-23T07:06:43.392Z,3.20
2023-01-23T07:09:30.075Z,3.25
2023-01-23T07:12:16.754Z,3.32
2023-01-23T07:15:03.580Z,3.22
2023-01-23T07:17:50.204Z,3.27
2023-01-23T07:20:38.279Z,3.00
2023-01-23T07:23:24.970Z,3.21
2023-01-23T07:26:12.138Z,3.20
2023-01-23T07:28:59.618Z,3.20
2023-01-23T07:31:46.310Z,3.22
2023-01-23T07:34:33.110Z,3.18
2023-01-23T07:37:19.790Z,3.27
2023-01-23T07:40:06.595Z,3.32
2023-01-23T07:42:53.209Z,3.29
2023-01-23T07:45:39.972Z,3.40
2023-01-23T07:48:26.703Z,3.39
2023-01-23T07:51:15.276Z,3.43
2023-01-23T07:54:01.936Z,3.47
2023-01-23T07:56:49.625Z,3.54
2023-01-23T07:59:36.420Z,3.46
2023-01-23T08:02:23.145Z,3.48
2023-01-23T08:05:09.911Z,3.44
2023-01-23T08:08:12.131Z,3.48
2023-01-23T08:11:03.567Z,3.41
2023-01-23T08:13:50.943Z,3.38
2023-01-23T08:16:37.602Z,3.42
2023-01-23T08:19:27.296Z,3.40
2023-01-23T08:22:13.979Z,3.51
2023-01-23T08:25:00.599Z,3.61
2023-01-23T08:27:47.227Z,3.63
2023-01-23T08:30:34.013Z,3.64
2023-01-23T08:33:21.184Z,3.70
2023-01-23T08:36:11.061Z,3.74
2023-01-23T08:38:57.961Z,3.71
2023-01-23T08:41:44.624Z,3.78
2023-01-23T08:44:33.556Z,3.79
2023-01-23T08:47:20.196Z,3.83
2023-01-23T08:50:07.193Z,3.83
2023-01-23T08:52:54.630Z,3.84
2023-01-23T08:55:41.270Z,3.88
2023-01-23T08:58:27.937Z,3.94
2023-01-23T09:01:15.715Z,4.02
2023-01-23T09:04:02.402Z,4.02
2023-01-23T09:06:49.034Z,4.06
2023-01-23T09:09:35.663Z,4.06
2023-01-23T09:12:22.338Z,4.06
2023-01-23T09:15:09.655Z,4.06
2023-01-23T09:17:56.311Z,4.05
2023-01-23T09:20:42.957Z,4.10
2023-01-23T09:23:29.767Z,4.15
2023-01-23T09:26:18.804Z,4.20
2023-01-23T09:29:06.886Z,4.26
2023-01-23T09:31:53.630Z,4.30
2023-01-23T09:34:40.537Z,4.34
2023-01-23T09:37:29.084Z,4.37
2023-01-23T09:40:16.885Z,4.38
2023-01-23T09:43:09.708Z,4.40
2023-01-23T09:46:11.587Z,4.44
2023-01-23T09:49:14.203Z,4.49
2023-01-23T09:52:03.374Z,4.43
2023-01-23T09:54:54.635Z,4.46
2023-01-23T09:57:55.744Z,4.51
2023-01-23T10:00:42.417Z,4.52
2023-01-23T10:03:31.083Z,4.35
2023-01-23T10:06:25.303Z,4.33
2023-01-23T10:09:19.783Z,4.31
2023-01-23T10:12:22.397Z,4.36
2023-01-23T10:15:29.832Z,4.42
2023-01-23T10:18:28.141Z,4.54
2023-01-23T10:21:27.226Z,4.52
2023-01-23T10:24:40.870Z,4.55
2023-01-23T10:27:33.536Z,4.60
2023-01-23T10:30:33.345Z,4.59
2023-01-23T10:33:20.302Z,4.60
2023-01-23T10:36:24.120Z,4.60
2023-01-23T10:39:16.198Z,4.74
2023-01-23T10:42:03.202Z,4.78
2023-01-23T10:44:50.006Z,4.84
2023-01-23T10:47:50.115Z,4.83
2023-01-23T10:50:41.584Z,4.67
2023-01-23T10:53:28.218Z,4.76
2023-01-23T10:56:16.952Z,4.84
2023-01-23T10:59:05.320Z,4.92
2023-01-23T11:02:15.750Z,5.02
2023-01-23T11:05:03.226Z,5.11
2023-01-23T11:07:53.866Z,5.13
2023-01-23T11:10:38.924Z,5.12
2023-01-23T11:13:33.098Z,5.13
2023-01-23T11:16:22.403Z,5.18
2023-01-23T11:19:07.517Z,5.27
2023-01-23T11:21:54.672Z,5.33
2023-01-23T11:24:41.451Z,5.43
2023-01-23T11:27:29.842Z,5.45
2023-01-23T11:30:18.961Z,5.34
2023-01-23T11:33:23.966Z,5.39
2023-01-23T11:36:17.650Z,5.22
2023-01-23T11:39:16.833Z,5.31
2023-01-23T11:42:02.532Z,5.37
2023-01-23T11:44:47.844Z,5.42
2023-01-23T11:47:49.819Z,5.36
2023-01-23T11:50:54.138Z,5.40
2023-01-23T11:53:43.558Z,5.46
2023-01-23T11:56:34.354Z,5.51
2023-01-23T11:59:19.183Z,5.59
2023-01-23T12:02:22.957Z,5.66
2023-01-23T12:05:07.991Z,5.57
2023-01-23T12:08:08.272Z,5.51
2023-01-23T12:10:57.659Z,5.49
2023-01-23T12:13:55.910Z,5.53
2023-01-23T12:16:53.191Z,5.58
2023-01-23T12:19:38.180Z,5.62
2023-01-23T12:22:39.441Z,5.36
2023-01-23T12:25:38.245Z,5.40
2023-01-23T12:28:26.048Z,5.48
2023-01-23T12:31:29.851Z,5.57
2023-01-23T12:34:19.187Z,5.55
2023-01-23T12:37:14.214Z,5.65
2023-01-23T12:40:08.429Z,5.68
2023-01-23T12:42:56.701Z,5.72
2023-01-23T12:45:46.704Z,5.53
2023-01-23T12:48:39.245Z,5.50
2023-01-23T12:51:32.149Z,5.13
2023-01-23T12:54:21.143Z,5.51
2023-01-23T12:57:08.111Z,5.53
2023-01-23T13:00:06.949Z,5.47
2023-01-23T13:03:00.842Z,5.44
2023-01-23T13:06:01.008Z,5.47
2023-01-23T13:09:05.570Z,5.37
2023-01-23T13:12:21.926Z,5.34
2023-01-23T13:15:17.515Z,5.38
2023-01-23T13:18:06.158Z,5.40
2023-01-23T13:20:56.324Z,5.34
2023-01-23T13:23:30.626Z,5.40
2023-01-23T13:26:23.418Z,5.57
2023-01-23T13:28:54.856Z,5.50
2023-01-23T13:31:40.509Z,5.46
2023-01-23T13:34:16.413Z,5.41
2023-01-23T13:36:46.762Z,5.52
2023-01-23T13:39:13.297Z,5.11
2023-01-23T13:41:39.740Z,5.48
2023-01-23T13:44:35.784Z,5.53
2023-01-23T14:21:47.015Z,5.38
2023-01-23T14:24:23.921Z,5.38
2023-01-23T14:26:51.443Z,5.46
2023-01-23T14:29:24.950Z,5.40
2023-01-23T14:31:51.509Z,5.39
2023-01-23T14:34:19.224Z,5.36
2023-01-23T14:36:47.120Z,5.47
2023-01-23T14:39:17.946Z,5.54
2023-01-23T14:41:46.270Z,5.58
2023-01-23T14:44:19.129Z,5.63
2023-01-23T14:46:46.655Z,5.64
2023-01-23T14:49:21.821Z,5.59
2023-01-23T14:52:01.206Z,5.53
2023-01-23T14:54:32.578Z,5.36
2023-01-23T14:57:00.686Z,5.52
2023-01-23T14:59:28.658Z,5.51
2023-01-23T15:02:10.188Z,5.59
2023-01-23T15:04:42.697Z,5.63
2023-01-23T15:07:16.911Z,5.62
2023-01-23T15:09:45.692Z,5.59
2023-01-23T15:12:15.937Z,5.63
2023-01-23T15:14:43.065Z,5.56
2023-01-23T15:17:14.846Z,5.57
2023-01-23T15:19:41.435Z,5.51
2023-01-23T15:22:24.901Z,5.33
2023-01-23T15:24:51.281Z,5.31
2023-01-23T15:27:34.170Z,5.35
2023-01-23T15:30:19.748Z,5.40
2023-01-23T15:32:46.109Z,5.47
2023-01-23T15:35:16.108Z,5.46
2023-01-23T15:37:46.487Z,5.32
2023-01-23T15:40:17.250Z,5.37
2023-01-23T15:42:59.912Z,5.37
2023-01-23T15:45:26.241Z,5.28
2023-01-23T15:47:52.611Z,5.33
2023-01-23T15:50:18.923Z,5.30
2023-01-23T15:52:46.753Z,5.26
2023-01-23T15:55:13.427Z,5.13
2023-01-23T15:57:41.669Z,5.07
2023-01-23T16:00:18.911Z,4.88
2023-01-23T16:02:55.656Z,5.02
2023-01-23T16:05:24.238Z,4.97
2023-01-23T16:07:51.084Z,4.98
2023-01-23T16:10:22.696Z,4.98
2023-01-23T16:12:50.316Z,5.02
2023-01-23T16:15:17.950Z,5.03
2023-01-23T16:17:44.809Z,5.00
2023-01-23T16:20:15.715Z,4.93
2023-01-23T16:22:42.812Z,4.87
2023-01-23T16:25:17.613Z,4.86
2023-01-23T16:27:44.530Z,4.91
2023-01-23T16:30:15.323Z,4.95
2023-01-23T16:32:41.822Z,4.98
2023-01-23T16:35:09.107Z,4.91
2023-01-23T16:37:36.778Z,4.95
2023-01-23T16:40:03.683Z,4.84
2023-01-23T16:42:30.433Z,4.75
2023-01-23T16:44:59.777Z,4.76
2023-01-23T16:47:26.204Z,4.86
2023-01-23T16:49:54.106Z,4.79
2023-01-23T16:52:24.022Z,4.84
2023-01-23T16:54:51.913Z,4.85
2023-01-23T16:57:20.005Z,4.85
2023-01-23T16:59:47.664Z,4.85
2023-01-23T17:02:20.569Z,4.92
2023-01-23T17:04:47.053Z,4.89
2023-01-23T17:07:17.167Z,4.85
2023-01-23T17:09:44.061Z,4.94
2023-01-23T17:12:30.734Z,4.83
2023-01-23T17:14:57.578Z,4.85
2023-01-23T17:17:33.131Z,4.91
2023-01-23T17:20:01.206Z,4.89
2023-01-23T17:22:30.404Z,4.84
2023-01-23T17:25:16.929Z,4.80
2023-01-23T17:28:12.786Z,4.84
2023-01-23T17:31:04.772Z,4.88
2023-01-23T17:33:52.696Z,4.89
2023-01-23T17:36:39.400Z,4.88
2023-01-23T17:39:26.049Z,4.87
2023-01-23T17:42:13.722Z,4.88
2023-01-23T17:45:00.568Z,4.80
2023-01-23T17:47:49.468Z,4.78
2023-01-23T17:50:36.212Z,4.76
2023-01-23T17:53:23.947Z,4.76
2023-01-23T17:56:11.165Z,4.73
2023-01-23T17:58:57.801Z,4.73
2023-01-23T18:01:44.387Z,4.76
2023-01-23T18:04:31.063Z,4.78
2023-01-23T18:07:17.826Z,4.76
2023-01-23T18:10:05.466Z,4.84
2023-01-23T18:12:58.730Z,4.87
2023-01-23T18:15:56.347Z,4.94
2023-01-23T18:18:43.595Z,4.91
2023-01-23T18:21:30.483Z,4.95
2023-01-23T18:24:19.924Z,4.92
2023-01-23T18:27:20.575Z,4.99
2023-01-23T18:30:26.145Z,5.03
2023-01-23T18:33:33.362Z,5.01
2023-01-23T18:36:31.432Z,5.01
2023-01-23T18:39:36.363Z,4.97
2023-01-23T18:42:33.639Z,4.93
2023-01-23T18:45:27.029Z,4.92
2023-01-23T18:48:24.785Z,4.94
2023-01-23T18:51:15.108Z,4.94
2023-01-23T18:54:04.439Z,4.88
2023-01-23T18:57:03.016Z,4.87
2023-01-23T19:00:25.456Z,4.96
2023-01-23T19:03:16.190Z,4.92
2023-01-23T19:06:12.788Z,4.94
2023-01-23T19:08:59.481Z,5.09
2023-01-23T19:11:56.257Z,5.07
2023-01-23T19:15:02.989Z,5.08
2023-01-23T19:17:55.898Z,4.95
2023-01-23T19:20:48.206Z,4.90
2023-01-23T19:23:40.741Z,4.94
2023-01-23T19:26:29.636Z,4.97
2023-01-23T19:29:21.913Z,4.95
2023-01-23T19:32:10.304Z,5.00
2023-01-23T19:35:12.400Z,5.01
2023-01-23T19:38:00.332Z,4.97
2023-01-23T19:40:48.348Z,4.48
2023-01-23T19:43:35.012Z,4.91
2023-01-23T19:46:24.369Z,4.96
2023-01-23T19:49:11.357Z,4.97
2023-01-23T19:51:58.073Z,4.96
2023-01-23T19:54:45.343Z,4.98
2023-01-23T19:57:32.076Z,4.97
2023-01-23T20:00:19.059Z,4.88
2023-01-23T20:03:05.945Z,4.88
2023-01-23T20:05:52.568Z,4.94
2023-01-23T20:08:39.163Z,4.98
2023-01-23T20:11:26.002Z,4.88
2023-01-23T20:14:12.727Z,4.95
2023-01-23T20:16:59.384Z,4.89
2023-01-23T20:19:48.025Z,4.89
2023-01-23T20:22:34.726Z,4.89
2023-01-23T20:25:21.748Z,4.87
2023-01-23T20:28:08.709Z,4.85
2023-01-23T20:30:55.922Z,4.84
2023-01-23T20:33:42.577Z,4.75
2023-01-23T20:36:29.238Z,4.68
2023-01-23T20:39:15.883Z,4.77
2023-01-23T20:42:02.606Z,4.82
2023-01-23T20:44:49.314Z,4.73
2023-01-23T20:47:36.194Z,4.71
2023-01-23T20:50:22.814Z,4.80
2023-01-23T20:53:30.569Z,4.74
2023-01-23T20:56:18.813Z,4.75
2023-01-23T20:59:22.957Z,4.72
2023-01-23T21:02:22.866Z,4.75
2023-01-23T21:08:58.956Z,4.76
2023-01-23T21:11:46.011Z,4.77
2023-01-23T21:14:32.706Z,4.79
2023-01-23T21:17:19.348Z,4.76
2023-01-23T21:20:06.276Z,4.74
2023-01-23T21:22:52.895Z,4.70
2023-01-23T21:25:39.569Z,4.70
2023-01-23T21:28:27.778Z,4.72
2023-01-23T21:31:16.458Z,4.77
2023-01-23T21:34:05.723Z,4.79
2023-01-23T21:36:52.616Z,4.88
2023-01-23T21:39:39.647Z,4.84
2023-01-23T21:42:26.604Z,4.85
2023-01-23T21:45:13.236Z,4.82
2023-01-23T21:48:00.041Z,4.80
2023-01-23T21:50:46.636Z,4.65
2023-01-23T21:53:33.516Z,4.65
2023-01-23T21:56:21.008Z,4.60
2023-01-23T21:59:07.649Z,4.53
2023-01-23T22:01:54.395Z,4.56
2023-01-23T22:04:41.059Z,4.57
2023-01-23T22:07:27.723Z,4.63
2023-01-23T22:10:14.744Z,4.72
2023-01-23T22:13:01.310Z,4.68
2023-01-23T22:15:47.932Z,4.72
2023-01-23T22:18:34.585Z,4.58
2023-01-23T22:21:21.193Z,4.63
2023-01-23T22:24:07.911Z,4.67
2023-01-23T22:26:54.633Z,4.78
2023-01-23T22:29:41.255Z,4.80
2023-01-23T22:32:27.932Z,4.73
2023-01-23T22:35:14.573Z,4.74
2023-01-23T22:38:01.154Z,4.80
2023-01-23T22:40:55.972Z,4.87
2023-01-23T22:43:42.715Z,4.92
2023-01-23T22:46:29.544Z,4.94
2023-01-23T22:49:16.172Z,4.87
2023-01-23T22:52:02.847Z,4.88
2023-01-23T22:54:49.451Z,4.84
2023-01-23T22:57:36.232Z,4.80
2023-01-23T23:00:22.917Z,4.79
2023-01-23T23:03:09.536Z,4.81
2023-01-23T23:05:57.377Z,4.88
2023-01-23T23:08:47.285Z,4.87
2023-01-23T23:11:36.835Z,4.78
2023-01-23T23:14:03.289Z,4.74
2023-01-23T23:16:44.894Z,4.75
2023-01-23T23:19:30.194Z,4.80
2023-01-23T23:22:15.051Z,4.76
2023-01-23T23:24:59.743Z,4.75
2023-01-23T23:27:46.337Z,4.80
2023-01-23T23:30:33.104Z,4.86
2023-01-23T23:33:20.251Z,4.80
2023-01-23T23:36:07.245Z,4.79
2023-01-23T23:38:53.973Z,4.75
2023-01-23T23:41:40.622Z,4.77
2023-01-23T23:44:27.390Z,4.89
2023-01-23T23:47:13.998Z,4.91
2023-01-23T23:50:00.686Z,4.92
2023-01-23T23:52:47.502Z,4.97
2023-01-23T23:55:34.163Z,4.95
2023-01-23T23:58:20.777Z,4.95
